createdAt,value
2022-10-28T00:02:26.611Z,101437.88
2022-10-28T00:04:58.728Z,101441.44
2022-10-28T00:07:28.245Z,101444.03
2022-10-28T00:09:57.732Z,101436.03
2022-10-28T00:12:27.270Z,101444.66
2022-10-28T00:14:56.762Z,101442.88
2022-10-28T00:17:26.351Z,101438.34
2022-10-28T00:19:55.844Z,101434.16
2022-10-28T00:22:27.925Z,101435.19
2022-10-28T00:24:57.388Z,101433.28
2022-10-28T00:27:26.829Z,101440.97
2022-10-28T00:29:56.974Z,101431.41
2022-10-28T00:32:26.440Z,101438.28
2022-10-28T00:34:55.955Z,101438.09
2022-10-28T00:37:28.029Z,101431.19
2022-10-28T00:39:57.503Z,101426.00
2022-10-28T00:42:26.942Z,101426.06
2022-10-28T00:44:59.405Z,101421.56
2022-10-28T00:47:45.181Z,101431.91
2022-10-28T00:50:19.569Z,101435.09
2022-10-28T00:52:55.270Z,101432.50
2022-10-28T00:55:26.101Z,101428.16
2022-10-28T00:57:56.820Z,101426.47
2022-10-28T01:00:26.681Z,101427.22
2022-10-28T01:02:56.154Z,101431.41
2022-10-28T01:05:29.105Z,101438.19
2022-10-28T01:08:04.200Z,101434.72
2022-10-28T01:10:57.961Z,101431.97
2022-10-28T01:13:36.341Z,101434.47
2022-10-28T01:16:09.749Z,101434.38
2022-10-28T01:18:46.022Z,101433.38
2022-10-28T01:21:44.370Z,101440.19
2022-10-28T01:24:27.522Z,101440.06
2022-10-28T01:27:29.581Z,101429.69
2022-10-28T01:30:07.356Z,101438.28
2022-10-28T01:32:47.969Z,101419.34
2022-10-28T01:35:22.121Z,101429.56
2022-10-28T01:37:59.262Z,101429.25
2022-10-28T01:40:33.781Z,101428.28
2022-10-28T01:43:11.521Z,101436.75
2022-10-28T01:45:44.781Z,101439.91
2022-10-28T01:48:18.870Z,101429.53
2022-10-28T01:50:51.170Z,101433.13
2022-10-28T01:53:24.335Z,101424.63
2022-10-28T01:55:56.809Z,101426.31
2022-10-28T01:58:29.473Z,101427.06
2022-10-28T02:00:59.627Z,101436.66
2022-10-28T02:03:31.641Z,101431.56
2022-10-28T02:06:03.438Z,101437.59
2022-10-28T02:08:40.343Z,101432.69
2022-10-28T02:11:22.652Z,101430.09
2022-10-28T02:13:58.190Z,101439.03
2022-10-28T02:16:33.062Z,101427.25
2022-10-28T02:19:10.753Z,101434.75
2022-10-28T02:21:47.990Z,101439.19
2022-10-28T02:24:22.165Z,101438.97
2022-10-28T02:26:55.919Z,101439.94
2022-10-28T02:29:31.975Z,101438.66
2022-10-28T02:32:04.074Z,101440.41
2022-10-28T02:34:39.622Z,101453.28
2022-10-28T02:37:13.986Z,101456.81
2022-10-28T02:39:45.466Z,101451.38
2022-10-28T02:42:16.698Z,101462.81
2022-10-28T02:44:51.597Z,101453.91
2022-10-28T02:47:23.036Z,101456.28
2022-10-28T02:49:58.180Z,101458.75
2022-10-28T02:52:29.161Z,101459.22
2022-10-28T02:55:00.288Z,101452.13
2022-10-28T02:57:32.500Z,101453.56
2022-10-28T03:00:04.157Z,101444.59
2022-10-28T03:02:33.759Z,101441.84
2022-10-28T03:05:06.276Z,101437.41
2022-10-28T03:07:35.838Z,101443.53
2022-10-28T03:10:06.672Z,101442.38
2022-10-28T03:12:36.097Z,101437.06
2022-10-28T03:15:05.725Z,101431.75
2022-10-28T03:17:35.229Z,101429.03
2022-10-28T03:20:08.282Z,101423.06
2022-10-28T03:22:37.809Z,101428.50
2022-10-28T03:25:08.118Z,101415.56
2022-10-28T03:27:37.633Z,101419.75
2022-10-28T03:30:08.137Z,101418.94
2022-10-28T03:32:37.551Z,101410.50
2022-10-28T03:35:10.769Z,101406.97
2022-10-28T03:37:40.291Z,101411.94
2022-10-28T03:40:10.769Z,101413.78
2022-10-28T03:42:41.224Z,101409.41
2022-10-28T03:45:11.454Z,101410.50
2022-10-28T03:47:40.949Z,101403.41
2022-10-28T03:50:13.269Z,101410.50
2022-10-28T03:52:42.754Z,101400.97
2022-10-28T03:55:12.437Z,101400.44
2022-10-28T03:57:41.939Z,101396.94
2022-10-28T04:00:12.583Z,101402.81
2022-10-28T04:02:42.142Z,101393.50
2022-10-28T04:05:14.374Z,101398.00
2022-10-28T04:07:43.853Z,101403.69
2022-10-28T04:10:13.924Z,101394.03
2022-10-28T04:12:43.439Z,101388.63
2022-10-28T04:15:13.024Z,101393.22
2022-10-28T04:17:42.478Z,101390.81
2022-10-28T04:20:14.993Z,101393.59
2022-10-28T04:22:44.485Z,101398.94
2022-10-28T04:27:46.165Z,101399.75
2022-10-28T04:30:15.748Z,101391.28
2022-10-28T04:32:45.628Z,101399.81
2022-10-28T04:35:17.813Z,101392.94
2022-10-28T04:37:47.244Z,101395.94
2022-10-28T04:40:16.842Z,101396.63
2022-10-28T04:42:46.348Z,101399.41
2022-10-28T04:45:15.982Z,101405.22
2022-10-28T04:47:45.446Z,101408.47
2022-10-28T04:50:17.818Z,101407.66
2022-10-28T04:52:47.269Z,101415.50
2022-10-28T04:55:16.888Z,101414.59
2022-10-28T04:57:46.357Z,101413.03
2022-10-28T05:00:16.680Z,101416.50
2022-10-28T05:02:46.318Z,101412.28
2022-10-28T05:05:18.478Z,101408.00
2022-10-28T05:07:48.205Z,101395.53
2022-10-28T05:10:18.210Z,101395.53
2022-10-28T05:12:48.216Z,101392.53
2022-10-28T05:15:18.136Z,101382.44
2022-10-28T05:17:48.813Z,101381.06
2022-10-28T05:20:22.081Z,101377.38
2022-10-28T05:22:53.790Z,101374.97
2022-10-28T05:25:24.510Z,101382.75
2022-10-28T05:27:54.129Z,101380.78
2022-10-28T05:30:23.544Z,101377.53
2022-10-28T05:32:55.259Z,101380.91
2022-10-28T05:35:27.536Z,101378.38
2022-10-28T05:37:57.033Z,101382.28
2022-10-28T05:40:26.987Z,101380.91
2022-10-28T05:42:56.804Z,101383.56
2022-10-28T05:45:26.461Z,101384.31
2022-10-28T05:47:56.287Z,101388.91
2022-10-28T05:50:28.600Z,101383.56
2022-10-28T05:52:59.528Z,101383.78
2022-10-28T05:55:31.608Z,101382.03
2022-10-28T05:58:01.070Z,101388.28
2022-10-28T06:00:31.531Z,101389.13
2022-10-28T06:03:09.461Z,101388.69
2022-10-28T06:05:42.818Z,101386.25
2022-10-28T06:08:13.569Z,101389.88
2022-10-28T06:10:43.062Z,101389.72
2022-10-28T06:13:11.027Z,101375.34
2022-10-28T06:15:40.478Z,101382.03
2022-10-28T06:18:10.030Z,101391.44
2022-10-28T06:20:42.107Z,101387.34
2022-10-28T06:23:11.590Z,101380.53
2022-10-28T06:25:41.061Z,101391.19
2022-10-28T06:28:10.665Z,101389.69
2022-10-28T06:30:40.145Z,101391.38
2022-10-28T06:33:09.609Z,101388.72
2022-10-28T06:35:41.658Z,101393.34
2022-10-28T06:38:11.459Z,101389.69
2022-10-28T06:40:40.853Z,101377.91
2022-10-28T06:43:12.606Z,101387.94
2022-10-28T06:45:42.047Z,101379.22
2022-10-28T06:48:13.320Z,101385.34
2022-10-28T06:50:45.365Z,101389.59
2022-10-28T06:53:14.823Z,101397.88
2022-10-28T06:55:48.807Z,101401.34
2022-10-28T06:58:18.363Z,101403.94
2022-10-28T07:00:47.953Z,101411.88
2022-10-28T07:03:18.796Z,101412.75
2022-10-28T07:05:51.964Z,101412.16
2022-10-28T07:08:21.392Z,101416.19
2022-10-28T07:10:56.881Z,101414.03
2022-10-28T07:13:26.696Z,101413.56
2022-10-28T07:15:56.724Z,101411.88
2022-10-28T07:18:28.574Z,101403.28
2022-10-28T07:21:03.558Z,101402.25
2022-10-28T07:23:34.335Z,101407.59
2022-10-28T07:26:03.874Z,101404.22
2022-10-28T07:28:33.419Z,101396.53
2022-10-28T07:31:04.248Z,101392.44
2022-10-28T07:33:33.831Z,101395.19
2022-10-28T07:36:09.019Z,101398.25
2022-10-28T07:39:08.708Z,101396.94
2022-10-28T07:41:40.044Z,101392.81
2022-10-28T07:44:09.505Z,101400.91
2022-10-28T07:46:39.032Z,101410.66
2022-10-28T07:49:08.670Z,101403.56
2022-10-28T07:51:40.914Z,101405.66
2022-10-28T07:54:10.380Z,101398.06
2022-10-28T07:56:39.825Z,101406.09
2022-10-28T07:59:09.308Z,101406.38
2022-10-28T08:01:38.769Z,101409.38
2022-10-28T08:04:08.461Z,101415.56
2022-10-28T08:06:40.597Z,101428.84
2022-10-28T08:09:10.042Z,101424.84
2022-10-28T08:11:39.467Z,101426.84
2022-10-28T08:14:08.998Z,101435.75
2022-10-28T08:16:38.467Z,101420.53
2022-10-28T08:19:08.275Z,101426.91
2022-10-28T08:21:40.563Z,101431.44
2022-10-28T08:24:10.848Z,101429.38
2022-10-28T08:26:40.310Z,101428.00
2022-10-28T08:29:10.260Z,101431.72
2022-10-28T08:31:40.110Z,101429.44
2022-10-28T08:34:10.050Z,101435.91
2022-10-28T08:36:42.454Z,101428.97
2022-10-28T08:39:12.004Z,101432.78
2022-10-28T08:41:43.314Z,101437.19
2022-10-28T08:44:34.116Z,101432.31
2022-10-28T08:47:16.720Z,101423.81
2022-10-28T08:49:49.263Z,101428.66
2022-10-28T08:52:30.394Z,101427.16
2022-10-28T08:55:04.117Z,101432.63
2022-10-28T08:57:39.336Z,101432.00
2022-10-28T09:00:10.584Z,101435.00
2022-10-28T09:02:50.879Z,101438.00
2022-10-28T09:05:23.652Z,101438.19
2022-10-28T09:07:56.355Z,101436.69
2022-10-28T09:10:43.914Z,101444.88
2022-10-28T09:13:18.962Z,101444.16
2022-10-28T09:15:55.157Z,101434.81
2022-10-28T09:18:32.844Z,101439.44
2022-10-28T09:21:05.756Z,101443.13
2022-10-28T09:23:40.165Z,101436.47
2022-10-28T09:26:17.615Z,101429.88
2022-10-28T09:28:57.415Z,101430.09
2022-10-28T09:31:35.661Z,101425.78
2022-10-28T09:34:17.714Z,101425.22
2022-10-28T09:36:49.859Z,101433.34
2022-10-28T09:39:26.861Z,101432.75
2022-10-28T09:41:57.910Z,101441.59
2022-10-28T09:44:31.285Z,101438.31
2022-10-28T09:47:02.242Z,101445.47
2022-10-28T09:49:36.212Z,101445.75
2022-10-28T09:52:15.189Z,101441.41
2022-10-28T09:54:52.050Z,101439.03
2022-10-28T09:57:21.702Z,101437.47
2022-10-28T09:59:51.246Z,101439.44
2022-10-28T10:02:38.522Z,101444.09
2022-10-28T10:05:16.997Z,101444.41
2022-10-28T10:07:49.886Z,101448.97
2022-10-28T10:10:25.905Z,101449.09
2022-10-28T10:12:56.652Z,101447.63
2022-10-28T10:15:31.078Z,101452.97
2022-10-28T10:18:03.383Z,101451.63
2022-10-28T10:20:49.276Z,101457.97
2022-10-28T10:23:26.641Z,101448.63
2022-10-28T10:26:06.891Z,101458.38
2022-10-28T10:28:42.955Z,101449.75
2022-10-28T10:31:21.136Z,101448.13
2022-10-28T10:33:53.530Z,101443.09
2022-10-28T10:36:28.276Z,101439.03
2022-10-28T10:38:59.544Z,101437.38
2022-10-28T10:41:42.461Z,101427.16
2022-10-28T10:44:36.547Z,101427.16
2022-10-28T10:47:23.369Z,101427.44
2022-10-28T10:49:54.995Z,101433.56
2022-10-28T10:52:26.219Z,101433.66
2022-10-28T10:55:05.868Z,101433.69
2022-10-28T10:57:37.982Z,101429.66
2022-10-28T11:00:08.724Z,101426.22
2022-10-28T11:02:40.509Z,101427.25
2022-10-28T11:05:12.277Z,101435.81
2022-10-28T11:07:42.807Z,101423.66
2022-10-28T11:10:24.295Z,101417.59
2022-10-28T11:12:58.123Z,101412.56
2022-10-28T11:15:29.835Z,101414.38
2022-10-28T11:18:02.291Z,101406.63
2022-10-28T11:20:43.988Z,101408.53
2022-10-28T11:23:25.977Z,101417.28
2022-10-28T11:25:57.016Z,101417.22
2022-10-28T11:28:40.331Z,101414.63
2022-10-28T11:31:32.572Z,101411.22
2022-10-28T11:34:13.420Z,101412.06
2022-10-28T11:36:49.126Z,101412.81
2022-10-28T11:39:23.251Z,101405.91
2022-10-28T11:42:03.598Z,101404.22
2022-10-28T11:44:46.109Z,101403.44
2022-10-28T11:47:32.371Z,101413.19
2022-10-28T11:50:12.397Z,101404.50
2022-10-28T11:52:52.691Z,101401.75
2022-10-28T11:55:30.350Z,101404.38
2022-10-28T11:58:09.129Z,101402.69
2022-10-28T12:00:56.295Z,101397.44
2022-10-28T12:03:43.714Z,101396.47
2022-10-28T12:06:19.541Z,101394.66
2022-10-28T12:09:14.848Z,101391.31
2022-10-28T12:12:01.132Z,101388.78
2022-10-28T12:14:35.824Z,101388.19
2022-10-28T12:17:14.690Z,101392.72
2022-10-28T12:19:47.757Z,101392.84
2022-10-28T12:22:22.196Z,101394.00
2022-10-28T12:24:52.573Z,101399.03
2022-10-28T12:27:26.453Z,101405.09
2022-10-28T12:30:00.013Z,101393.53
2022-10-28T12:32:35.431Z,101389.09
2022-10-28T12:35:08.372Z,101393.31
2022-10-28T12:37:43.470Z,101380.97
2022-10-28T12:40:20.764Z,101380.13
2022-10-28T12:42:53.500Z,101374.75
2022-10-28T12:45:24.299Z,101375.63
2022-10-28T12:48:02.319Z,101374.06
2022-10-28T12:50:36.615Z,101370.63
2022-10-28T12:53:21.756Z,101374.84
2022-10-28T12:55:54.191Z,101362.47
2022-10-28T12:58:28.794Z,101364.97
2022-10-28T13:01:01.281Z,101360.78
2022-10-28T13:03:34.400Z,101371.50
2022-10-28T13:06:32.843Z,101363.09
2022-10-28T13:09:21.804Z,101356.06
2022-10-28T13:12:16.698Z,101373.56
2022-10-28T13:15:25.736Z,101366.53
2022-10-28T13:18:06.454Z,101372.59
2022-10-28T13:20:48.342Z,101368.22
2022-10-28T13:23:29.404Z,101363.00
2022-10-28T13:26:06.907Z,101363.94
2022-10-28T13:28:37.946Z,101355.16
2022-10-28T13:31:09.227Z,101361.22
2022-10-28T13:33:40.319Z,101355.97
2022-10-28T13:36:19.076Z,101353.25
2022-10-28T13:38:56.457Z,101353.22
2022-10-28T13:41:34.955Z,101356.63
2022-10-28T13:44:26.538Z,101350.44
2022-10-28T13:47:21.119Z,101340.84
2022-10-28T13:50:26.113Z,101340.84
2022-10-28T13:53:25.754Z,101337.25
2022-10-28T13:56:01.587Z,101338.09
2022-10-28T13:58:31.108Z,101334.53
2022-10-28T14:01:35.792Z,101327.44
2022-10-28T14:04:08.732Z,101332.63
2022-10-28T14:06:38.361Z,101332.59
2022-10-28T14:09:08.004Z,101329.88
2022-10-28T14:11:40.087Z,101325.53
2022-10-28T14:14:09.633Z,101324.63
2022-10-28T14:16:40.791Z,101326.31
2022-10-28T14:19:22.363Z,101317.50
2022-10-28T14:22:00.589Z,101320.13
2022-10-28T14:24:36.523Z,101309.59
2022-10-28T14:27:33.569Z,101307.78
2022-10-28T14:30:20.312Z,101315.56
2022-10-28T14:33:12.780Z,101316.41
2022-10-28T14:35:43.687Z,101312.91
2022-10-28T14:38:48.752Z,101316.41
2022-10-28T14:41:36.483Z,101307.69
2022-10-28T14:44:16.974Z,101305.94
2022-10-28T14:47:02.190Z,101302.31
2022-10-28T14:49:33.881Z,101297.94
2022-10-28T14:52:08.730Z,101305.75
2022-10-28T14:54:41.097Z,101309.19
2022-10-28T14:57:11.334Z,101303.91
2022-10-28T14:59:44.961Z,101312.56
2022-10-28T15:02:17.331Z,101302.91
2022-10-28T15:04:49.070Z,101299.44
2022-10-28T15:07:20.267Z,101289.81
2022-10-28T15:09:53.563Z,101293.25
2022-10-28T15:12:26.037Z,101293.19
2022-10-28T15:14:59.233Z,101291.41
2022-10-28T15:17:31.011Z,101300.03
2022-10-28T15:20:02.087Z,101294.75
2022-10-28T15:22:33.339Z,101285.13
2022-10-28T15:25:04.538Z,101292.97
2022-10-28T15:27:35.216Z,101293.78
2022-10-28T15:30:10.096Z,101284.16
2022-10-28T15:32:39.543Z,101288.53
2022-10-28T15:35:40.693Z,101280.63
2022-10-28T15:38:29.127Z,101284.84
2022-10-28T15:40:58.728Z,101294.34
2022-10-28T15:43:29.833Z,101297.72
2022-10-28T15:46:11.607Z,101292.34
2022-10-28T15:48:41.339Z,101299.31
2022-10-28T15:51:14.771Z,101296.63
2022-10-28T15:53:44.691Z,101302.63
2022-10-28T15:56:23.092Z,101294.78
2022-10-28T15:59:05.165Z,101283.38
2022-10-28T16:01:41.879Z,101288.53
2022-10-28T16:04:46.595Z,101282.34
2022-10-28T16:07:16.129Z,101277.06
2022-10-28T16:09:49.092Z,101290.06
2022-10-28T16:12:19.712Z,101280.41
2022-10-28T16:14:50.748Z,101277.75
2022-10-28T16:17:27.229Z,101274.28
2022-10-28T16:19:58.893Z,101273.34
2022-10-28T16:22:29.687Z,101284.63
2022-10-28T16:24:59.808Z,101282.84
2022-10-28T16:27:31.320Z,101274.16
2022-10-28T16:30:01.271Z,101274.09
2022-10-28T16:32:37.225Z,101283.63
2022-10-28T16:35:07.701Z,101300.03
2022-10-28T16:37:41.685Z,101300.00
2022-10-28T16:40:31.207Z,101286.88
2022-10-28T16:43:04.179Z,101294.69
2022-10-28T16:45:33.636Z,101289.47
2022-10-28T16:48:05.855Z,101296.47
2022-10-28T16:50:35.380Z,101287.75
2022-10-28T16:53:04.805Z,101297.34
2022-10-28T16:55:34.531Z,101296.41
2022-10-28T16:58:04.082Z,101289.44
2022-10-28T17:00:33.555Z,101297.25
2022-10-28T17:03:05.955Z,101297.19
2022-10-28T17:05:35.707Z,101311.06
2022-10-28T17:08:07.382Z,101313.66
2022-10-28T17:10:40.379Z,101309.25
2022-10-28T17:13:09.966Z,101315.28
2022-10-28T17:15:39.513Z,101316.91
2022-10-28T17:18:12.391Z,101315.13
2022-10-28T17:20:42.033Z,101314.22
2022-10-28T17:23:11.458Z,101313.41
2022-10-28T17:28:30.583Z,101317.69
2022-10-28T17:31:04.936Z,101314.25
2022-10-28T17:33:37.492Z,101307.25
2022-10-28T17:36:08.596Z,101312.47
2022-10-28T17:38:38.433Z,101312.59
2022-10-28T17:41:08.241Z,101330.94
2022-10-28T17:43:37.774Z,101317.13
2022-10-28T17:46:07.817Z,101322.38
2022-10-28T17:48:40.246Z,101319.81
2022-10-28T17:51:09.790Z,101329.50
2022-10-28T17:53:39.245Z,101335.50
2022-10-28T17:56:09.882Z,101329.41
2022-10-28T17:58:39.398Z,101329.44
2022-10-28T18:01:10.822Z,101327.69
2022-10-28T18:03:42.966Z,101328.63
2022-10-28T18:06:14.217Z,101330.31
2022-10-28T18:08:44.914Z,101337.41
2022-10-28T18:11:15.700Z,101335.84
2022-10-28T18:13:47.694Z,101330.75
2022-10-28T18:16:18.939Z,101332.47
2022-10-28T18:18:51.546Z,101332.63
2022-10-28T18:21:21.039Z,101330.78
2022-10-28T18:23:54.204Z,101330.78
2022-10-28T18:26:24.001Z,101332.47
2022-10-28T18:28:53.448Z,101336.75
2022-10-28T18:31:23.522Z,101343.69
2022-10-28T18:33:56.581Z,101348.78
2022-10-28T18:36:26.841Z,101348.63
2022-10-28T18:38:56.329Z,101352.09
2022-10-28T18:41:27.420Z,101345.03
2022-10-28T18:43:57.840Z,101345.97
2022-10-28T18:46:28.243Z,101348.56
2022-10-28T18:51:50.094Z,101352.00
2022-10-28T18:54:19.655Z,101354.56
2022-10-28T18:56:50.541Z,101349.34
2022-10-28T18:59:21.895Z,101358.84
2022-10-28T19:01:51.458Z,101361.34
2022-10-28T19:04:23.608Z,101365.47
2022-10-28T19:06:53.307Z,101358.50
2022-10-28T19:09:22.772Z,101367.13
2022-10-28T19:11:52.181Z,101356.69
2022-10-28T19:14:21.633Z,101372.44
2022-10-28T19:16:51.334Z,101375.03
2022-10-28T19:19:23.475Z,101384.44
2022-10-28T19:21:53.011Z,101386.06
2022-10-28T19:24:22.480Z,101386.81
2022-10-28T19:26:52.212Z,101383.31
2022-10-28T19:29:21.759Z,101386.63
2022-10-28T19:31:51.311Z,101394.34
2022-10-28T19:34:23.404Z,101411.59
2022-10-28T19:36:53.191Z,101409.84
2022-10-28T19:39:22.813Z,101409.84
2022-10-28T19:41:52.387Z,101411.56
2022-10-28T19:44:21.821Z,101406.38
2022-10-28T19:46:51.330Z,101397.59
2022-10-28T19:49:26.992Z,101401.03
2022-10-28T19:51:59.500Z,101414.91
2022-10-28T19:54:29.089Z,101400.97
2022-10-28T19:56:58.686Z,101413.16
2022-10-28T19:59:28.181Z,101421.75
2022-10-28T20:01:57.804Z,101429.50
2022-10-28T20:04:30.015Z,101434.66
2022-10-28T20:07:00.163Z,101440.78
2022-10-28T20:09:29.680Z,101446.00
2022-10-28T20:11:59.308Z,101446.00
2022-10-28T20:14:29.130Z,101452.88
2022-10-28T20:17:06.270Z,101467.66
2022-10-28T20:19:38.654Z,101464.19
2022-10-28T20:22:08.186Z,101451.09
2022-10-28T20:24:37.712Z,101456.31
2022-10-28T20:27:07.373Z,101455.38
2022-10-28T20:29:36.896Z,101457.91
2022-10-28T20:32:06.713Z,101463.06
2022-10-28T20:34:38.772Z,101463.03
2022-10-28T20:37:08.242Z,101483.09
2022-10-28T20:39:37.684Z,101480.47
2022-10-28T20:42:07.235Z,101484.78
2022-10-28T20:44:36.696Z,101493.31
2022-10-28T20:47:06.307Z,101504.47
2022-10-28T20:49:39.263Z,101503.63
2022-10-28T20:52:08.833Z,101511.38
2022-10-28T20:54:38.312Z,101516.53
2022-10-28T20:57:07.797Z,101502.66
2022-10-28T20:59:37.279Z,101509.53
2022-10-28T21:02:06.826Z,101506.91
2022-10-28T21:04:39.347Z,101510.19
2022-10-28T21:07:08.799Z,101501.41
2022-10-28T21:09:38.300Z,101511.78
2022-10-28T21:12:08.217Z,101527.31
2022-10-28T21:14:38.083Z,101535.06
2022-10-28T21:17:07.526Z,101527.25
2022-10-28T21:19:39.617Z,101529.69
2022-10-28T21:22:09.108Z,101531.19
2022-10-28T21:24:38.642Z,101529.25
2022-10-28T21:27:08.169Z,101531.66
2022-10-28T21:29:37.729Z,101540.38
2022-10-28T21:32:08.002Z,101529.84
2022-10-28T21:34:40.043Z,101525.53
2022-10-28T21:37:10.956Z,101532.50
2022-10-28T21:39:40.448Z,101542.78
2022-10-28T21:42:09.889Z,101550.56
2022-10-28T21:44:39.421Z,101540.88
2022-10-28T21:47:08.997Z,101539.03
2022-10-28T21:49:41.066Z,101542.44
2022-10-28T21:52:10.528Z,101548.50
2022-10-28T21:54:39.969Z,101541.47
2022-10-28T21:57:09.752Z,101544.81
2022-10-28T21:59:39.197Z,101537.81
2022-10-28T22:02:08.832Z,101538.66
2022-10-28T22:04:41.246Z,101535.09
2022-10-28T22:07:10.756Z,101532.47
2022-10-28T22:09:40.288Z,101527.94
2022-10-28T22:12:10.741Z,101527.94
2022-10-28T22:14:40.248Z,101515.56
2022-10-28T22:17:09.697Z,101523.88
2022-10-28T22:19:41.793Z,101527.31
2022-10-28T22:22:11.293Z,101522.66
2022-10-28T22:24:40.783Z,101518.13
2022-10-28T22:27:10.245Z,101515.38
2022-10-28T22:29:39.701Z,101513.63
2022-10-28T22:32:09.204Z,101498.75
2022-10-28T22:34:41.289Z,101499.44
2022-10-28T22:37:11.172Z,101488.13
2022-10-28T22:39:40.627Z,101489.88
2022-10-28T22:42:10.250Z,101481.88
2022-10-28T22:44:39.700Z,101487.84
2022-10-28T22:47:09.214Z,101477.25
2022-10-28T22:49:41.632Z,101484.91
2022-10-28T22:52:11.095Z,101479.44
2022-10-28T22:54:40.582Z,101464.66
2022-10-28T22:57:10.141Z,101460.47
2022-10-28T22:59:39.663Z,101468.91
2022-10-28T23:02:09.267Z,101458.50
2022-10-28T23:04:41.509Z,101459.13
2022-10-28T23:07:10.966Z,101460.81
2022-10-28T23:09:40.398Z,101446.84
2022-10-28T23:12:11.057Z,101453.63
2022-10-28T23:14:40.531Z,101467.34
2022-10-28T23:17:10.960Z,101465.47
2022-10-28T23:19:43.026Z,101455.47
2022-10-28T23:22:12.554Z,101456.31
2022-10-28T23:24:42.052Z,101453.44
2022-10-28T23:27:11.730Z,101448.28
2022-10-28T23:29:41.406Z,101450.78
2022-10-28T23:32:10.860Z,101449.53
2022-10-28T23:34:42.934Z,101444.94
2022-10-28T23:37:12.412Z,101440.38
2022-10-28T23:39:41.848Z,101454.00
2022-10-28T23:42:11.360Z,101434.72
2022-10-28T23:44:41.087Z,101427.88
2022-10-28T23:47:10.600Z,101416.47
2022-10-28T23:49:42.803Z,101424.09
2022-10-28T23:52:12.286Z,101423.13
2022-10-28T23:54:41.761Z,101429.97
2022-10-28T23:57:11.236Z,101439.28
2022-10-28T23:59:40.653Z,101441.75
